sensor_id;sensor_type;location;lat;lon;timestamp;P1;durP1;ratioP1;P2;durP2;ratioP2
63350;SDS011;74263;51.058;17.040;2023-12-07T00:01:24;173.25;;;72.82;;
63350;SDS011;74263;51.058;17.040;2023-12-07T00:06:25;142.90;;;63.83;;
63350;SDS011;74263;51.058;17.040;2023-12-07T00:11:27;154.27;;;59.47;;
63350;SDS011;74263;51.058;17.040;2023-12-07T00:16:29;151.02;;;62.20;;
63350;SDS011;74263;51.058;17.040;2023-12-07T00:21:31;147.93;;;63.47;;
63350;SDS011;74263;51.058;17.040;2023-12-07T00:26:33;148.45;;;59.88;;
63350;SDS011;74263;51.058;17.040;2023-12-07T00:31:34;143.97;;;59.70;;
63350;SDS011;74263;51.058;17.040;2023-12-07T00:36:36;142.05;;;57.97;;
63350;SDS011;74263;51.058;17.040;2023-12-07T00:41:38;147.00;;;59.60;;
63350;SDS011;74263;51.058;17.040;2023-12-07T00:46:40;146.75;;;60.25;;
63350;SDS011;74263;51.058;17.040;2023-12-07T00:51:41;134.90;;;59.13;;
63350;SDS011;74263;51.058;17.040;2023-12-07T00:56:43;137.68;;;54.33;;
63350;SDS011;74263;51.058;17.040;2023-12-07T01:01:45;141.33;;;56.10;;
63350;SDS011;74263;51.058;17.040;2023-12-07T01:06:47;131.85;;;55.53;;
63350;SDS011;74263;51.058;17.040;2023-12-07T01:11:49;139.63;;;57.23;;
63350;SDS011;74263;51.058;17.040;2023-12-07T01:16:51;139.57;;;57.55;;
63350;SDS011;74263;51.058;17.040;2023-12-07T01:21:53;146.03;;;59.10;;
63350;SDS011;74263;51.058;17.040;2023-12-07T01:26:55;136.43;;;56.38;;
63350;SDS011;74263;51.058;17.040;2023-12-07T01:31:56;126.00;;;56.40;;
63350;SDS011;74263;51.058;17.040;2023-12-07T01:36:58;138.52;;;56.90;;
63350;SDS011;74263;51.058;17.040;2023-12-07T01:42:00;130.67;;;56.20;;
63350;SDS011;74263;51.058;17.040;2023-12-07T01:47:02;126.18;;;53.47;;
63350;SDS011;74263;51.058;17.040;2023-12-07T01:52:04;145.73;;;58.90;;
63350;SDS011;74263;51.058;17.040;2023-12-07T02:02:08;140.98;;;57.50;;
63350;SDS011;74263;51.058;17.040;2023-12-07T02:07:10;137.17;;;55.10;;
63350;SDS011;74263;51.058;17.040;2023-12-07T02:12:12;139.85;;;56.15;;
63350;SDS011;74263;51.058;17.040;2023-12-07T02:22:22;134.32;;;54.65;;
63350;SDS011;74263;51.058;17.040;2023-12-07T02:27:34;138.15;;;54.63;;
63350;SDS011;74263;51.058;17.040;2023-12-07T02:32:40;131.40;;;52.70;;
63350;SDS011;74263;51.058;17.040;2023-12-07T02:37:46;138.48;;;55.03;;
63350;SDS011;74263;51.058;17.040;2023-12-07T02:42:48;127.32;;;52.58;;
63350;SDS011;74263;51.058;17.040;2023-12-07T02:47:50;133.75;;;52.88;;
63350;SDS011;74263;51.058;17.040;2023-12-07T02:52:52;133.48;;;52.97;;
63350;SDS011;74263;51.058;17.040;2023-12-07T02:57:54;141.43;;;54.20;;
63350;SDS011;74263;51.058;17.040;2023-12-07T03:02:56;124.57;;;52.35;;
63350;SDS011;74263;51.058;17.040;2023-12-07T03:07:57;122.10;;;52.63;;
63350;SDS011;74263;51.058;17.040;2023-12-07T03:12:59;143.00;;;56.23;;
63350;SDS011;74263;51.058;17.040;2023-12-07T03:18:01;139.53;;;55.43;;
63350;SDS011;74263;51.058;17.040;2023-12-07T03:23:03;144.40;;;55.83;;
63350;SDS011;74263;51.058;17.040;2023-12-07T03:28:05;145.07;;;53.13;;
63350;SDS011;74263;51.058;17.040;2023-12-07T03:33:07;129.30;;;52.80;;
63350;SDS011;74263;51.058;17.040;2023-12-07T03:38:09;126.43;;;53.33;;
63350;SDS011;74263;51.058;17.040;2023-12-07T03:43:10;129.13;;;54.80;;
63350;SDS011;74263;51.058;17.040;2023-12-07T03:48:12;136.82;;;54.83;;
63350;SDS011;74263;51.058;17.040;2023-12-07T03:53:14;139.97;;;55.83;;
63350;SDS011;74263;51.058;17.040;2023-12-07T03:58:16;136.27;;;54.40;;
63350;SDS011;74263;51.058;17.040;2023-12-07T04:03:18;140.20;;;55.70;;
63350;SDS011;74263;51.058;17.040;2023-12-07T04:08:19;136.23;;;54.42;;
63350;SDS011;74263;51.058;17.040;2023-12-07T04:13:21;135.88;;;54.38;;
63350;SDS011;74263;51.058;17.040;2023-12-07T04:18:23;137.95;;;52.78;;
63350;SDS011;74263;51.058;17.040;2023-12-07T04:23:25;131.65;;;54.08;;
63350;SDS011;74263;51.058;17.040;2023-12-07T04:28:26;137.10;;;52.90;;
63350;SDS011;74263;51.058;17.040;2023-12-07T04:33:28;135.20;;;56.93;;
63350;SDS011;74263;51.058;17.040;2023-12-07T04:38:30;142.83;;;56.27;;
63350;SDS011;74263;51.058;17.040;2023-12-07T04:43:32;142.70;;;58.67;;
63350;SDS011;74263;51.058;17.040;2023-12-07T04:48:34;136.87;;;53.37;;
63350;SDS011;74263;51.058;17.040;2023-12-07T04:53:36;146.17;;;57.00;;
63350;SDS011;74263;51.058;17.040;2023-12-07T04:58:37;135.63;;;54.80;;
63350;SDS011;74263;51.058;17.040;2023-12-07T05:03:39;140.68;;;57.38;;
63350;SDS011;74263;51.058;17.040;2023-12-07T05:08:41;131.67;;;53.77;;
63350;SDS011;74263;51.058;17.040;2023-12-07T05:13:42;139.55;;;55.13;;
63350;SDS011;74263;51.058;17.040;2023-12-07T05:18:44;139.13;;;56.03;;
63350;SDS011;74263;51.058;17.040;2023-12-07T05:23:46;143.37;;;55.93;;
63350;SDS011;74263;51.058;17.040;2023-12-07T05:28:48;137.25;;;54.83;;
63350;SDS011;74263;51.058;17.040;2023-12-07T05:33:49;138.10;;;56.23;;
63350;SDS011;74263;51.058;17.040;2023-12-07T05:38:52;144.97;;;56.67;;
63350;SDS011;74263;51.058;17.040;2023-12-07T05:43:53;126.88;;;50.22;;
63350;SDS011;74263;51.058;17.040;2023-12-07T05:48:55;135.15;;;54.25;;
63350;SDS011;74263;51.058;17.040;2023-12-07T05:58:59;125.90;;;52.60;;
63350;SDS011;74263;51.058;17.040;2023-12-07T06:04:02;147.13;;;57.87;;
63350;SDS011;74263;51.058;17.040;2023-12-07T06:09:04;140.48;;;54.92;;
63350;SDS011;74263;51.058;17.040;2023-12-07T06:14:06;137.80;;;56.40;;
63350;SDS011;74263;51.058;17.040;2023-12-07T06:19:08;138.75;;;55.63;;
63350;SDS011;74263;51.058;17.040;2023-12-07T06:24:09;144.57;;;57.57;;
63350;SDS011;74263;51.058;17.040;2023-12-07T06:29:11;146.63;;;58.33;;
63350;SDS011;74263;51.058;17.040;2023-12-07T06:34:13;143.43;;;55.47;;
63350;SDS011;74263;51.058;17.040;2023-12-07T06:39:15;188.63;;;69.33;;
63350;SDS011;74263;51.058;17.040;2023-12-07T06:44:17;216.00;;;75.60;;
63350;SDS011;74263;51.058;17.040;2023-12-07T06:49:19;199.52;;;70.97;;
63350;SDS011;74263;51.058;17.040;2023-12-07T06:54:20;221.33;;;76.20;;
63350;SDS011;74263;51.058;17.040;2023-12-07T06:59:22;203.10;;;70.83;;
63350;SDS011;74263;51.058;17.040;2023-12-07T07:04:24;207.20;;;75.50;;
63350;SDS011;74263;51.058;17.040;2023-12-07T07:09:26;200.53;;;72.70;;
63350;SDS011;74263;51.058;17.040;2023-12-07T07:14:27;197.20;;;73.88;;
63350;SDS011;74263;51.058;17.040;2023-12-07T07:19:29;184.05;;;67.88;;
63350;SDS011;74263;51.058;17.040;2023-12-07T07:24:31;185.73;;;66.40;;
63350;SDS011;74263;51.058;17.040;2023-12-07T07:29:33;179.55;;;65.20;;
63350;SDS011;74263;51.058;17.040;2023-12-07T07:34:35;189.10;;;64.43;;
63350;SDS011;74263;51.058;17.040;2023-12-07T07:39:36;178.20;;;62.40;;
63350;SDS011;74263;51.058;17.040;2023-12-07T07:44:38;183.93;;;64.40;;
63350;SDS011;74263;51.058;17.040;2023-12-07T07:49:40;167.82;;;62.42;;
63350;SDS011;74263;51.058;17.040;2023-12-07T07:54:42;172.70;;;62.27;;
63350;SDS011;74263;51.058;17.040;2023-12-07T07:59:44;162.45;;;61.70;;
63350;SDS011;74263;51.058;17.040;2023-12-07T08:04:46;179.40;;;60.00;;
63350;SDS011;74263;51.058;17.040;2023-12-07T08:09:47;185.07;;;61.17;;
63350;SDS011;74263;51.058;17.040;2023-12-07T08:14:49;169.23;;;58.95;;
63350;SDS011;74263;51.058;17.040;2023-12-07T08:19:51;185.33;;;59.00;;
63350;SDS011;74263;51.058;17.040;2023-12-07T08:24:53;158.70;;;58.47;;
63350;SDS011;74263;51.058;17.040;2023-12-07T08:30:09;177.10;;;58.47;;
63350;SDS011;74263;51.058;17.040;2023-12-07T08:35:11;200.35;;;61.17;;
63350;SDS011;74263;51.058;17.040;2023-12-07T08:40:13;197.73;;;63.03;;
63350;SDS011;74263;51.058;17.040;2023-12-07T08:45:15;188.00;;;59.70;;
63350;SDS011;74263;51.058;17.040;2023-12-07T08:50:17;199.10;;;60.47;;
63350;SDS011;74263;51.058;17.040;2023-12-07T08:55:18;187.60;;;59.50;;
63350;SDS011;74263;51.058;17.040;2023-12-07T09:00:20;207.57;;;60.67;;
63350;SDS011;74263;51.058;17.040;2023-12-07T09:05:22;189.43;;;62.05;;
63350;SDS011;74263;51.058;17.040;2023-12-07T09:10:28;190.43;;;56.72;;
63350;SDS011;74263;51.058;17.040;2023-12-07T09:15:31;157.98;;;59.17;;
63350;SDS011;74263;51.058;17.040;2023-12-07T09:20:32;185.32;;;56.40;;
63350;SDS011;74263;51.058;17.040;2023-12-07T09:25:34;193.27;;;63.28;;
63350;SDS011;74263;51.058;17.040;2023-12-07T09:30:36;203.80;;;61.33;;
63350;SDS011;74263;51.058;17.040;2023-12-07T09:35:38;189.20;;;59.70;;
63350;SDS011;74263;51.058;17.040;2023-12-07T09:40:40;173.50;;;60.38;;
63350;SDS011;74263;51.058;17.040;2023-12-07T09:45:43;181.90;;;59.20;;
63350;SDS011;74263;51.058;17.040;2023-12-07T09:50:45;182.65;;;57.63;;
63350;SDS011;74263;51.058;17.040;2023-12-07T09:55:47;170.30;;;57.20;;
63350;SDS011;74263;51.058;17.040;2023-12-07T10:00:49;181.30;;;59.13;;
63350;SDS011;74263;51.058;17.040;2023-12-07T10:05:58;174.10;;;55.83;;
63350;SDS011;74263;51.058;17.040;2023-12-07T10:11:10;175.55;;;56.38;;
63350;SDS011;74263;51.058;17.040;2023-12-07T10:16:14;174.73;;;60.15;;
63350;SDS011;74263;51.058;17.040;2023-12-07T10:21:16;179.35;;;56.90;;
63350;SDS011;74263;51.058;17.040;2023-12-07T10:26:32;176.32;;;57.00;;
63350;SDS011;74263;51.058;17.040;2023-12-07T10:31:38;161.85;;;55.20;;
63350;SDS011;74263;51.058;17.040;2023-12-07T10:36:40;175.30;;;56.78;;
63350;SDS011;74263;51.058;17.040;2023-12-07T10:41:44;173.13;;;57.03;;
63350;SDS011;74263;51.058;17.040;2023-12-07T10:46:47;172.07;;;58.10;;
63350;SDS011;74263;51.058;17.040;2023-12-07T10:56:51;169.30;;;55.23;;
63350;SDS011;74263;51.058;17.040;2023-12-07T11:01:53;163.85;;;52.13;;
63350;SDS011;74263;51.058;17.040;2023-12-07T11:06:56;167.73;;;55.40;;
63350;SDS011;74263;51.058;17.040;2023-12-07T11:12:01;168.52;;;57.85;;
63350;SDS011;74263;51.058;17.040;2023-12-07T11:17:04;158.13;;;54.13;;
63350;SDS011;74263;51.058;17.040;2023-12-07T11:22:06;180.77;;;55.63;;
63350;SDS011;74263;51.058;17.040;2023-12-07T11:27:08;175.48;;;54.17;;
63350;SDS011;74263;51.058;17.040;2023-12-07T11:32:10;174.57;;;56.00;;
63350;SDS011;74263;51.058;17.040;2023-12-07T11:37:20;177.48;;;56.75;;
63350;SDS011;74263;51.058;17.040;2023-12-07T11:42:22;167.05;;;57.58;;
63350;SDS011;74263;51.058;17.040;2023-12-07T11:47:26;169.15;;;56.50;;
63350;SDS011;74263;51.058;17.040;2023-12-07T11:52:29;157.63;;;50.25;;
63350;SDS011;74263;51.058;17.040;2023-12-07T11:57:30;137.73;;;46.35;;
63350;SDS011;74263;51.058;17.040;2023-12-07T12:02:32;120.33;;;43.93;;
63350;SDS011;74263;51.058;17.040;2023-12-07T12:07:34;113.85;;;42.75;;
63350;SDS011;74263;51.058;17.040;2023-12-07T12:12:36;105.70;;;38.20;;
63350;SDS011;74263;51.058;17.040;2023-12-07T12:17:39;103.57;;;38.88;;
63350;SDS011;74263;51.058;17.040;2023-12-07T12:22:41;101.47;;;36.80;;
63350;SDS011;74263;51.058;17.040;2023-12-07T12:27:43;101.85;;;37.60;;
63350;SDS011;74263;51.058;17.040;2023-12-07T12:32:46;102.63;;;36.08;;
63350;SDS011;74263;51.058;17.040;2023-12-07T12:37:48;91.85;;;36.95;;
63350;SDS011;74263;51.058;17.040;2023-12-07T12:42:51;100.50;;;38.42;;
63350;SDS011;74263;51.058;17.040;2023-12-07T12:47:57;106.45;;;37.65;;
63350;SDS011;74263;51.058;17.040;2023-12-07T12:53:04;88.40;;;36.80;;
63350;SDS011;74263;51.058;17.040;2023-12-07T12:58:07;96.35;;;38.08;;
63350;SDS011;74263;51.058;17.040;2023-12-07T13:03:09;104.13;;;39.60;;
63350;SDS011;74263;51.058;17.040;2023-12-07T13:08:11;100.45;;;39.63;;
63350;SDS011;74263;51.058;17.040;2023-12-07T13:13:16;96.45;;;38.45;;
63350;SDS011;74263;51.058;17.040;2023-12-07T13:18:17;112.07;;;44.00;;
63350;SDS011;74263;51.058;17.040;2023-12-07T13:23:19;107.73;;;39.90;;
63350;SDS011;74263;51.058;17.040;2023-12-07T13:28:21;116.38;;;40.72;;
63350;SDS011;74263;51.058;17.040;2023-12-07T13:33:24;97.30;;;37.67;;
63350;SDS011;74263;51.058;17.040;2023-12-07T13:38:31;93.70;;;38.30;;
63350;SDS011;74263;51.058;17.040;2023-12-07T13:43:32;102.68;;;42.00;;
63350;SDS011;74263;51.058;17.040;2023-12-07T13:48:34;105.53;;;42.97;;
63350;SDS011;74263;51.058;17.040;2023-12-07T13:53:36;97.00;;;39.40;;
63350;SDS011;74263;51.058;17.040;2023-12-07T13:58:38;103.28;;;38.10;;
63350;SDS011;74263;51.058;17.040;2023-12-07T14:03:40;100.77;;;39.30;;
63350;SDS011;74263;51.058;17.040;2023-12-07T14:08:41;103.20;;;39.85;;
63350;SDS011;74263;51.058;17.040;2023-12-07T14:13:44;98.53;;;40.45;;
63350;SDS011;74263;51.058;17.040;2023-12-07T14:24:00;93.22;;;37.60;;
63350;SDS011;74263;51.058;17.040;2023-12-07T14:29:02;99.37;;;40.50;;
63350;SDS011;74263;51.058;17.040;2023-12-07T14:39:08;86.22;;;35.53;;
63350;SDS011;74263;51.058;17.040;2023-12-07T14:44:10;88.65;;;38.08;;
63350;SDS011;74263;51.058;17.040;2023-12-07T14:49:18;92.35;;;39.92;;
63350;SDS011;74263;51.058;17.040;2023-12-07T14:54:20;107.60;;;42.17;;
63350;SDS011;74263;51.058;17.040;2023-12-07T14:59:29;88.43;;;36.72;;
63350;SDS011;74263;51.058;17.040;2023-12-07T15:04:31;92.05;;;38.75;;
63350;SDS011;74263;51.058;17.040;2023-12-07T15:09:35;91.30;;;41.28;;
63350;SDS011;74263;51.058;17.040;2023-12-07T15:14:38;95.68;;;40.42;;
63350;SDS011;74263;51.058;17.040;2023-12-07T15:19:40;100.13;;;40.13;;
63350;SDS011;74263;51.058;17.040;2023-12-07T15:24:42;91.95;;;35.95;;
63350;SDS011;74263;51.058;17.040;2023-12-07T15:29:44;97.90;;;40.53;;
63350;SDS011;74263;51.058;17.040;2023-12-07T15:34:46;98.97;;;40.28;;
63350;SDS011;74263;51.058;17.040;2023-12-07T15:39:48;95.28;;;41.53;;
63350;SDS011;74263;51.058;17.040;2023-12-07T15:44:50;87.40;;;40.13;;
63350;SDS011;74263;51.058;17.040;2023-12-07T15:49:52;88.85;;;36.95;;
63350;SDS011;74263;51.058;17.040;2023-12-07T15:54:54;101.18;;;42.17;;
63350;SDS011;74263;51.058;17.040;2023-12-07T15:59:58;114.47;;;45.13;;
63350;SDS011;74263;51.058;17.040;2023-12-07T16:05:01;98.90;;;40.93;;
63350;SDS011;74263;51.058;17.040;2023-12-07T16:15:05;102.75;;;40.38;;
63350;SDS011;74263;51.058;17.040;2023-12-07T16:25:09;106.85;;;42.45;;
63350;SDS011;74263;51.058;17.040;2023-12-07T16:30:11;113.22;;;46.88;;
63350;SDS011;74263;51.058;17.040;2023-12-07T16:35:13;113.83;;;50.03;;
63350;SDS011;74263;51.058;17.040;2023-12-07T16:40:15;119.23;;;49.17;;
63350;SDS011;74263;51.058;17.040;2023-12-07T16:45:17;120.10;;;50.55;;
63350;SDS011;74263;51.058;17.040;2023-12-07T16:50:19;134.80;;;53.13;;
63350;SDS011;74263;51.058;17.040;2023-12-07T16:55:20;126.47;;;51.40;;
63350;SDS011;74263;51.058;17.040;2023-12-07T17:00:22;124.57;;;49.43;;
63350;SDS011;74263;51.058;17.040;2023-12-07T17:05:24;125.53;;;51.65;;
63350;SDS011;74263;51.058;17.040;2023-12-07T17:10:26;135.40;;;54.95;;
63350;SDS011;74263;51.058;17.040;2023-12-07T17:15:28;126.63;;;52.83;;
63350;SDS011;74263;51.058;17.040;2023-12-07T17:20:30;138.67;;;59.73;;
63350;SDS011;74263;51.058;17.040;2023-12-07T17:25:32;131.27;;;56.33;;
63350;SDS011;74263;51.058;17.040;2023-12-07T17:30:34;148.93;;;60.95;;
63350;SDS011;74263;51.058;17.040;2023-12-07T17:35:36;171.93;;;67.27;;
63350;SDS011;74263;51.058;17.040;2023-12-07T17:40:38;183.18;;;74.40;;
63350;SDS011;74263;51.058;17.040;2023-12-07T17:45:40;177.13;;;70.22;;
63350;SDS011;74263;51.058;17.040;2023-12-07T17:50:41;172.77;;;71.88;;
63350;SDS011;74263;51.058;17.040;2023-12-07T17:55:43;159.23;;;68.13;;
63350;SDS011;74263;51.058;17.040;2023-12-07T18:00:45;153.05;;;60.17;;
63350;SDS011;74263;51.058;17.040;2023-12-07T18:05:47;147.57;;;58.55;;
63350;SDS011;74263;51.058;17.040;2023-12-07T18:10:49;156.03;;;63.03;;
63350;SDS011;74263;51.058;17.040;2023-12-07T18:15:51;149.70;;;60.50;;
63350;SDS011;74263;51.058;17.040;2023-12-07T18:20:52;144.23;;;57.28;;
63350;SDS011;74263;51.058;17.040;2023-12-07T18:25:54;140.53;;;55.93;;
63350;SDS011;74263;51.058;17.040;2023-12-07T18:30:56;164.20;;;61.13;;
63350;SDS011;74263;51.058;17.040;2023-12-07T18:35:58;142.73;;;56.58;;
63350;SDS011;74263;51.058;17.040;2023-12-07T18:41:00;163.90;;;65.38;;
63350;SDS011;74263;51.058;17.040;2023-12-07T18:46:02;164.02;;;61.45;;
63350;SDS011;74263;51.058;17.040;2023-12-07T18:56:07;155.38;;;60.38;;
63350;SDS011;74263;51.058;17.040;2023-12-07T19:01:09;173.00;;;63.67;;
63350;SDS011;74263;51.058;17.040;2023-12-07T19:06:11;170.23;;;63.90;;
63350;SDS011;74263;51.058;17.040;2023-12-07T19:11:13;154.87;;;61.63;;
63350;SDS011;74263;51.058;17.040;2023-12-07T19:16:14;158.97;;;62.10;;
63350;SDS011;74263;51.058;17.040;2023-12-07T19:21:16;144.48;;;56.58;;
63350;SDS011;74263;51.058;17.040;2023-12-07T19:26:18;146.35;;;56.90;;
63350;SDS011;74263;51.058;17.040;2023-12-07T19:31:20;146.95;;;55.45;;
63350;SDS011;74263;51.058;17.040;2023-12-07T19:36:21;131.68;;;53.45;;
63350;SDS011;74263;51.058;17.040;2023-12-07T19:41:23;141.32;;;53.85;;
63350;SDS011;74263;51.058;17.040;2023-12-07T19:46:25;152.30;;;57.83;;
63350;SDS011;74263;51.058;17.040;2023-12-07T19:51:26;130.70;;;50.60;;
63350;SDS011;74263;51.058;17.040;2023-12-07T19:56:28;148.05;;;53.00;;
63350;SDS011;74263;51.058;17.040;2023-12-07T20:01:30;130.02;;;53.55;;
63350;SDS011;74263;51.058;17.040;2023-12-07T20:06:32;127.88;;;48.58;;
63350;SDS011;74263;51.058;17.040;2023-12-07T20:11:40;136.77;;;53.58;;
63350;SDS011;74263;51.058;17.040;2023-12-07T20:16:42;132.33;;;53.33;;
63350;SDS011;74263;51.058;17.040;2023-12-07T20:21:43;137.50;;;54.50;;
63350;SDS011;74263;51.058;17.040;2023-12-07T20:26:45;135.90;;;54.37;;
63350;SDS011;74263;51.058;17.040;2023-12-07T20:31:47;143.40;;;56.80;;
63350;SDS011;74263;51.058;17.040;2023-12-07T20:36:49;147.40;;;59.10;;
63350;SDS011;74263;51.058;17.040;2023-12-07T20:41:51;130.80;;;55.30;;
63350;SDS011;74263;51.058;17.040;2023-12-07T20:46:53;124.77;;;50.40;;
63350;SDS011;74263;51.058;17.040;2023-12-07T20:51:55;151.52;;;63.72;;
63350;SDS011;74263;51.058;17.040;2023-12-07T20:56:57;154.75;;;60.92;;
63350;SDS011;74263;51.058;17.040;2023-12-07T21:01:58;150.10;;;62.90;;
63350;SDS011;74263;51.058;17.040;2023-12-07T21:07:00;161.35;;;65.40;;
63350;SDS011;74263;51.058;17.040;2023-12-07T21:12:02;153.73;;;62.72;;
63350;SDS011;74263;51.058;17.040;2023-12-07T21:17:04;168.70;;;66.00;;
63350;SDS011;74263;51.058;17.040;2023-12-07T21:22:05;172.93;;;69.57;;
63350;SDS011;74263;51.058;17.040;2023-12-07T21:27:07;185.38;;;69.57;;
63350;SDS011;74263;51.058;17.040;2023-12-07T21:32:09;206.95;;;80.15;;
63350;SDS011;74263;51.058;17.040;2023-12-07T21:37:10;216.95;;;82.50;;
63350;SDS011;74263;51.058;17.040;2023-12-07T21:42:12;203.63;;;78.10;;
63350;SDS011;74263;51.058;17.040;2023-12-07T21:47:14;213.25;;;80.13;;
63350;SDS011;74263;51.058;17.040;2023-12-07T21:52:15;204.20;;;76.95;;
63350;SDS011;74263;51.058;17.040;2023-12-07T21:57:17;189.25;;;72.30;;
63350;SDS011;74263;51.058;17.040;2023-12-07T22:02:19;182.48;;;71.45;;
63350;SDS011;74263;51.058;17.040;2023-12-07T22:07:20;185.88;;;75.40;;
63350;SDS011;74263;51.058;17.040;2023-12-07T22:12:22;193.52;;;74.90;;
63350;SDS011;74263;51.058;17.040;2023-12-07T22:17:24;204.50;;;77.57;;
63350;SDS011;74263;51.058;17.040;2023-12-07T22:22:26;192.13;;;73.05;;
63350;SDS011;74263;51.058;17.040;2023-12-07T22:27:28;210.07;;;77.32;;
63350;SDS011;74263;51.058;17.040;2023-12-07T22:32:30;189.53;;;76.27;;
63350;SDS011;74263;51.058;17.040;2023-12-07T22:37:31;185.93;;;74.70;;
63350;SDS011;74263;51.058;17.040;2023-12-07T22:42:33;201.32;;;73.45;;
63350;SDS011;74263;51.058;17.040;2023-12-07T22:47:35;188.25;;;70.65;;
63350;SDS011;74263;51.058;17.040;2023-12-07T22:52:38;204.40;;;77.47;;
63350;SDS011;74263;51.058;17.040;2023-12-07T22:57:39;201.40;;;76.57;;
63350;SDS011;74263;51.058;17.040;2023-12-07T23:02:41;208.13;;;76.47;;
63350;SDS011;74263;51.058;17.040;2023-12-07T23:07:43;192.82;;;74.47;;
63350;SDS011;74263;51.058;17.040;2023-12-07T23:12:45;210.65;;;80.30;;
63350;SDS011;74263;51.058;17.040;2023-12-07T23:17:47;201.25;;;77.32;;
63350;SDS011;74263;51.058;17.040;2023-12-07T23:22:49;189.20;;;74.32;;
63350;SDS011;74263;51.058;17.040;2023-12-07T23:27:51;197.33;;;77.40;;
63350;SDS011;74263;51.058;17.040;2023-12-07T23:32:53;189.82;;;71.50;;
63350;SDS011;74263;51.058;17.040;2023-12-07T23:37:55;188.00;;;72.93;;
63350;SDS011;74263;51.058;17.040;2023-12-07T23:42:56;203.52;;;75.72;;
63350;SDS011;74263;51.058;17.040;2023-12-07T23:47:58;207.02;;;78.93;;
63350;SDS011;74263;51.058;17.040;2023-12-07T23:53:00;232.53;;;86.03;;
63350;SDS011;74263;51.058;17.040;2023-12-07T23:58:02;220.23;;;81.23;;
